sensor_id;sensor_type;location;lat;lon;timestamp;temperature;humidity
4050;DHT22;2039;50.894;6.888;2023-12-22T00:01:12;5.50;99.90
4050;DHT22;2039;50.894;6.888;2023-12-22T00:03:41;5.10;99.90
4050;DHT22;2039;50.894;6.888;2023-12-22T00:06:07;4.90;99.90
4050;DHT22;2039;50.894;6.888;2023-12-22T00:08:32;4.70;99.90
4050;DHT22;2039;50.894;6.888;2023-12-22T00:10:58;4.70;99.90
4050;DHT22;2039;50.894;6.888;2023-12-22T00:13:24;4.70;99.90
4050;DHT22;2039;50.894;6.888;2023-12-22T00:15:50;4.80;99.90
4050;DHT22;2039;50.894;6.888;2023-12-22T00:18:16;4.80;99.90
4050;DHT22;2039;50.894;6.888;2023-12-22T00:20:41;4.90;99.90
4050;DHT22;2039;50.894;6.888;2023-12-22T00:23:07;5.00;99.90
4050;DHT22;2039;50.894;6.888;2023-12-22T00:25:33;5.00;99.90
4050;DHT22;2039;50.894;6.888;2023-12-22T00:28:01;5.10;99.90
4050;DHT22;2039;50.894;6.888;2023-12-22T00:30:27;5.10;99.90
4050;DHT22;2039;50.894;6.888;2023-12-22T00:32:53;5.10;99.90
4050;DHT22;2039;50.894;6.888;2023-12-22T00:35:18;5.20;99.90
4050;DHT22;2039;50.894;6.888;2023-12-22T00:37:44;5.30;99.90
4050;DHT22;2039;50.894;6.888;2023-12-22T00:40:10;5.30;99.90
4050;DHT22;2039;50.894;6.888;2023-12-22T00:42:36;5.40;99.90
4050;DHT22;2039;50.894;6.888;2023-12-22T00:45:01;5.40;99.90
4050;DHT22;2039;50.894;6.888;2023-12-22T00:47:28;5.50;99.90
4050;DHT22;2039;50.894;6.888;2023-12-22T00:49:54;5.60;99.90
4050;DHT22;2039;50.894;6.888;2023-12-22T00:52:19;5.60;99.90
4050;DHT22;2039;50.894;6.888;2023-12-22T00:54:45;5.70;99.90
4050;DHT22;2039;50.894;6.888;2023-12-22T00:57:11;5.70;99.90
4050;DHT22;2039;50.894;6.888;2023-12-22T00:59:38;5.70;99.90
4050;DHT22;2039;50.894;6.888;2023-12-22T01:02:07;5.70;99.90
4050;DHT22;2039;50.894;6.888;2023-12-22T01:04:33;5.80;99.90
4050;DHT22;2039;50.894;6.888;2023-12-22T01:06:59;5.80;99.90
4050;DHT22;2039;50.894;6.888;2023-12-22T01:09:24;5.80;99.90
4050;DHT22;2039;50.894;6.888;2023-12-22T01:11:50;5.80;99.90
4050;DHT22;2039;50.894;6.888;2023-12-22T01:14:16;5.90;99.90
4050;DHT22;2039;50.894;6.888;2023-12-22T01:16:41;5.90;99.90
4050;DHT22;2039;50.894;6.888;2023-12-22T01:19:07;6.00;99.90
4050;DHT22;2039;50.894;6.888;2023-12-22T01:21:32;6.00;99.90
4050;DHT22;2039;50.894;6.888;2023-12-22T01:23:58;6.00;99.90
4050;DHT22;2039;50.894;6.888;2023-12-22T01:26:27;6.00;99.90
4050;DHT22;2039;50.894;6.888;2023-12-22T01:28:53;6.00;99.90
4050;DHT22;2039;50.894;6.888;2023-12-22T01:31:18;6.00;99.90
4050;DHT22;2039;50.894;6.888;2023-12-22T01:33:45;6.00;99.90
4050;DHT22;2039;50.894;6.888;2023-12-22T01:36:11;6.00;99.90
4050;DHT22;2039;50.894;6.888;2023-12-22T01:38:36;6.10;99.90
4050;DHT22;2039;50.894;6.888;2023-12-22T01:41:02;6.10;99.90
4050;DHT22;2039;50.894;6.888;2023-12-22T01:43:28;6.20;99.90
4050;DHT22;2039;50.894;6.888;2023-12-22T01:45:58;6.10;99.90
4050;DHT22;2039;50.894;6.888;2023-12-22T01:48:25;6.10;99.90
4050;DHT22;2039;50.894;6.888;2023-12-22T01:50:52;6.10;99.90
4050;DHT22;2039;50.894;6.888;2023-12-22T01:53:22;6.20;99.90
4050;DHT22;2039;50.894;6.888;2023-12-22T01:55:53;6.10;99.90
4050;DHT22;2039;50.894;6.888;2023-12-22T01:58:23;6.10;99.90
4050;DHT22;2039;50.894;6.888;2023-12-22T02:00:49;6.10;99.90
4050;DHT22;2039;50.894;6.888;2023-12-22T02:03:16;6.10;99.90
4050;DHT22;2039;50.894;6.888;2023-12-22T02:05:43;6.10;99.90
4050;DHT22;2039;50.894;6.888;2023-12-22T02:08:11;6.10;99.90
4050;DHT22;2039;50.894;6.888;2023-12-22T02:10:36;6.10;99.90
4050;DHT22;2039;50.894;6.888;2023-12-22T02:13:06;6.10;99.90
4050;DHT22;2039;50.894;6.888;2023-12-22T02:15:33;6.10;99.90
4050;DHT22;2039;50.894;6.888;2023-12-22T02:18:16;6.10;99.90
4050;DHT22;2039;50.894;6.888;2023-12-22T02:20:45;6.10;99.90
4050;DHT22;2039;50.894;6.888;2023-12-22T02:23:11;6.10;99.90
4050;DHT22;2039;50.894;6.888;2023-12-22T02:25:36;6.10;99.90
4050;DHT22;2039;50.894;6.888;2023-12-22T02:28:10;6.00;99.90
4050;DHT22;2039;50.894;6.888;2023-12-22T02:33:26;6.10;99.90
4050;DHT22;2039;50.894;6.888;2023-12-22T02:35:58;6.10;99.90
4050;DHT22;2039;50.894;6.888;2023-12-22T02:38:25;6.20;99.90
4050;DHT22;2039;50.894;6.888;2023-12-22T02:40:51;6.20;99.90
4050;DHT22;2039;50.894;6.888;2023-12-22T02:43:17;6.30;99.90
4050;DHT22;2039;50.894;6.888;2023-12-22T02:45:43;6.30;99.90
4050;DHT22;2039;50.894;6.888;2023-12-22T02:48:08;6.30;99.90
4050;DHT22;2039;50.894;6.888;2023-12-22T02:50:34;6.30;99.90
4050;DHT22;2039;50.894;6.888;2023-12-22T02:53:00;6.40;99.90
4050;DHT22;2039;50.894;6.888;2023-12-22T02:55:25;6.40;99.90
4050;DHT22;2039;50.894;6.888;2023-12-22T02:57:51;6.40;99.90
4050;DHT22;2039;50.894;6.888;2023-12-22T03:00:17;6.40;99.90
4050;DHT22;2039;50.894;6.888;2023-12-22T03:02:42;6.40;99.90
4050;DHT22;2039;50.894;6.888;2023-12-22T03:05:08;6.40;99.90
4050;DHT22;2039;50.894;6.888;2023-12-22T03:07:34;6.40;99.90
4050;DHT22;2039;50.894;6.888;2023-12-22T03:09:59;6.40;99.90
4050;DHT22;2039;50.894;6.888;2023-12-22T03:12:25;6.40;99.90
4050;DHT22;2039;50.894;6.888;2023-12-22T03:14:50;6.40;99.90
4050;DHT22;2039;50.894;6.888;2023-12-22T03:17:16;6.40;99.90
4050;DHT22;2039;50.894;6.888;2023-12-22T03:19:42;6.50;99.90
4050;DHT22;2039;50.894;6.888;2023-12-22T03:22:07;6.50;99.90
4050;DHT22;2039;50.894;6.888;2023-12-22T03:24:33;6.50;99.90
4050;DHT22;2039;50.894;6.888;2023-12-22T03:26:59;6.60;99.90
4050;DHT22;2039;50.894;6.888;2023-12-22T03:29:24;6.60;99.90
4050;DHT22;2039;50.894;6.888;2023-12-22T03:31:50;6.70;99.90
4050;DHT22;2039;50.894;6.888;2023-12-22T03:34:16;6.70;99.90
4050;DHT22;2039;50.894;6.888;2023-12-22T03:36:41;6.80;99.90
4050;DHT22;2039;50.894;6.888;2023-12-22T03:39:07;6.80;99.90
4050;DHT22;2039;50.894;6.888;2023-12-22T03:41:33;6.90;99.90
4050;DHT22;2039;50.894;6.888;2023-12-22T03:43:59;6.90;99.90
4050;DHT22;2039;50.894;6.888;2023-12-22T03:46:25;6.90;99.90
4050;DHT22;2039;50.894;6.888;2023-12-22T03:48:51;7.00;99.90
4050;DHT22;2039;50.894;6.888;2023-12-22T03:51:17;7.00;99.90
4050;DHT22;2039;50.894;6.888;2023-12-22T03:53:42;7.00;99.90
4050;DHT22;2039;50.894;6.888;2023-12-22T03:56:08;7.00;99.90
4050;DHT22;2039;50.894;6.888;2023-12-22T03:58:35;7.10;99.90
4050;DHT22;2039;50.894;6.888;2023-12-22T04:01:01;7.10;99.90
4050;DHT22;2039;50.894;6.888;2023-12-22T04:03:26;7.10;99.90
4050;DHT22;2039;50.894;6.888;2023-12-22T04:05:52;7.00;99.90
4050;DHT22;2039;50.894;6.888;2023-12-22T04:08:18;7.00;99.90
4050;DHT22;2039;50.894;6.888;2023-12-22T04:10:45;7.00;99.90
4050;DHT22;2039;50.894;6.888;2023-12-22T04:13:11;7.00;99.90
4050;DHT22;2039;50.894;6.888;2023-12-22T04:15:36;7.00;99.90
4050;DHT22;2039;50.894;6.888;2023-12-22T04:18:02;7.00;99.90
4050;DHT22;2039;50.894;6.888;2023-12-22T04:20:28;7.00;99.90
4050;DHT22;2039;50.894;6.888;2023-12-22T04:22:53;7.00;99.90
4050;DHT22;2039;50.894;6.888;2023-12-22T04:25:19;7.00;99.90
4050;DHT22;2039;50.894;6.888;2023-12-22T04:27:45;6.90;99.90
4050;DHT22;2039;50.894;6.888;2023-12-22T04:30:11;6.90;99.90
4050;DHT22;2039;50.894;6.888;2023-12-22T04:32:37;6.90;99.90
4050;DHT22;2039;50.894;6.888;2023-12-22T04:35:03;6.90;99.90
4050;DHT22;2039;50.894;6.888;2023-12-22T04:37:29;6.80;99.90
4050;DHT22;2039;50.894;6.888;2023-12-22T04:39:54;6.80;99.90
4050;DHT22;2039;50.894;6.888;2023-12-22T04:42:20;6.70;99.90
4050;DHT22;2039;50.894;6.888;2023-12-22T04:44:46;6.70;99.90
4050;DHT22;2039;50.894;6.888;2023-12-22T04:47:11;6.70;99.90
4050;DHT22;2039;50.894;6.888;2023-12-22T04:49:38;6.70;99.90
4050;DHT22;2039;50.894;6.888;2023-12-22T04:52:04;6.80;99.90
4050;DHT22;2039;50.894;6.888;2023-12-22T04:54:29;6.80;99.90
4050;DHT22;2039;50.894;6.888;2023-12-22T04:56:55;6.80;99.90
4050;DHT22;2039;50.894;6.888;2023-12-22T04:59:21;6.80;99.90
4050;DHT22;2039;50.894;6.888;2023-12-22T05:01:47;6.80;99.90
4050;DHT22;2039;50.894;6.888;2023-12-22T05:04:12;6.80;99.90
4050;DHT22;2039;50.894;6.888;2023-12-22T05:06:38;6.80;99.90
4050;DHT22;2039;50.894;6.888;2023-12-22T05:09:04;6.90;99.90
4050;DHT22;2039;50.894;6.888;2023-12-22T05:11:29;7.00;99.90
4050;DHT22;2039;50.894;6.888;2023-12-22T05:13:55;7.00;99.90
4050;DHT22;2039;50.894;6.888;2023-12-22T05:16:24;7.10;99.90
4050;DHT22;2039;50.894;6.888;2023-12-22T05:18:50;7.10;99.90
4050;DHT22;2039;50.894;6.888;2023-12-22T05:21:15;7.20;99.90
4050;DHT22;2039;50.894;6.888;2023-12-22T05:23:41;7.30;99.90
4050;DHT22;2039;50.894;6.888;2023-12-22T05:26:10;7.30;99.90
4050;DHT22;2039;50.894;6.888;2023-12-22T05:28:35;7.40;99.90
4050;DHT22;2039;50.894;6.888;2023-12-22T05:31:01;7.40;99.90
4050;DHT22;2039;50.894;6.888;2023-12-22T05:33:30;7.50;99.90
4050;DHT22;2039;50.894;6.888;2023-12-22T05:35:56;7.50;99.90
4050;DHT22;2039;50.894;6.888;2023-12-22T05:38:21;7.50;99.90
4050;DHT22;2039;50.894;6.888;2023-12-22T05:40:47;7.50;99.90
4050;DHT22;2039;50.894;6.888;2023-12-22T05:43:13;7.60;99.90
4050;DHT22;2039;50.894;6.888;2023-12-22T05:45:40;7.60;99.90
4050;DHT22;2039;50.894;6.888;2023-12-22T05:48:06;7.70;99.90
4050;DHT22;2039;50.894;6.888;2023-12-22T05:50:32;7.70;99.90
4050;DHT22;2039;50.894;6.888;2023-12-22T05:52:58;7.80;99.90
4050;DHT22;2039;50.894;6.888;2023-12-22T05:55:23;7.80;99.90
4050;DHT22;2039;50.894;6.888;2023-12-22T05:57:49;7.70;99.90
4050;DHT22;2039;50.894;6.888;2023-12-22T06:00:15;7.80;99.90
4050;DHT22;2039;50.894;6.888;2023-12-22T06:02:41;7.80;99.90
4050;DHT22;2039;50.894;6.888;2023-12-22T06:05:07;7.80;99.90
4050;DHT22;2039;50.894;6.888;2023-12-22T06:07:32;7.90;99.90
4050;DHT22;2039;50.894;6.888;2023-12-22T06:09:58;7.90;99.90
4050;DHT22;2039;50.894;6.888;2023-12-22T06:12:30;7.90;99.90
4050;DHT22;2039;50.894;6.888;2023-12-22T06:14:56;8.00;99.90
4050;DHT22;2039;50.894;6.888;2023-12-22T06:17:22;7.90;99.90
4050;DHT22;2039;50.894;6.888;2023-12-22T06:19:47;7.90;99.90
4050;DHT22;2039;50.894;6.888;2023-12-22T06:22:13;7.90;99.90
4050;DHT22;2039;50.894;6.888;2023-12-22T06:24:39;7.90;99.90
4050;DHT22;2039;50.894;6.888;2023-12-22T06:27:04;8.00;99.90
4050;DHT22;2039;50.894;6.888;2023-12-22T06:29:32;8.00;99.90
4050;DHT22;2039;50.894;6.888;2023-12-22T06:31:57;8.00;99.90
4050;DHT22;2039;50.894;6.888;2023-12-22T06:34:23;8.00;99.90
4050;DHT22;2039;50.894;6.888;2023-12-22T06:36:50;8.00;99.90
4050;DHT22;2039;50.894;6.888;2023-12-22T06:39:15;8.00;99.90
4050;DHT22;2039;50.894;6.888;2023-12-22T06:41:41;8.00;99.90
4050;DHT22;2039;50.894;6.888;2023-12-22T06:44:07;8.00;99.90
4050;DHT22;2039;50.894;6.888;2023-12-22T06:46:33;8.00;99.90
4050;DHT22;2039;50.894;6.888;2023-12-22T06:48:59;8.00;99.90
4050;DHT22;2039;50.894;6.888;2023-12-22T06:51:26;8.10;99.90
4050;DHT22;2039;50.894;6.888;2023-12-22T06:53:52;8.00;99.90
4050;DHT22;2039;50.894;6.888;2023-12-22T06:56:20;7.90;99.90
4050;DHT22;2039;50.894;6.888;2023-12-22T06:58:46;7.70;99.90
4050;DHT22;2039;50.894;6.888;2023-12-22T07:01:34;7.50;99.90
4050;DHT22;2039;50.894;6.888;2023-12-22T07:04:01;7.50;99.90
4050;DHT22;2039;50.894;6.888;2023-12-22T07:06:29;7.40;99.90
4050;DHT22;2039;50.894;6.888;2023-12-22T07:11:47;7.30;99.90
4050;DHT22;2039;50.894;6.888;2023-12-22T07:14:13;7.30;99.90
4050;DHT22;2039;50.894;6.888;2023-12-22T07:16:39;7.20;99.90
4050;DHT22;2039;50.894;6.888;2023-12-22T07:19:05;7.10;99.90
4050;DHT22;2039;50.894;6.888;2023-12-22T07:21:31;7.10;99.90
4050;DHT22;2039;50.894;6.888;2023-12-22T07:23:56;7.10;99.90
4050;DHT22;2039;50.894;6.888;2023-12-22T07:26:24;7.20;99.90
4050;DHT22;2039;50.894;6.888;2023-12-22T07:28:54;7.20;99.90
4050;DHT22;2039;50.894;6.888;2023-12-22T07:31:20;7.20;99.90
4050;DHT22;2039;50.894;6.888;2023-12-22T07:33:46;7.20;99.90
4050;DHT22;2039;50.894;6.888;2023-12-22T07:36:12;7.30;99.90
4050;DHT22;2039;50.894;6.888;2023-12-22T07:38:38;7.30;99.90
4050;DHT22;2039;50.894;6.888;2023-12-22T07:41:07;7.30;99.90
4050;DHT22;2039;50.894;6.888;2023-12-22T07:43:33;7.40;99.90
4050;DHT22;2039;50.894;6.888;2023-12-22T07:45:58;7.40;99.90
4050;DHT22;2039;50.894;6.888;2023-12-22T07:48:24;7.40;99.90
4050;DHT22;2039;50.894;6.888;2023-12-22T07:50:50;7.50;99.90
4050;DHT22;2039;50.894;6.888;2023-12-22T07:53:16;7.50;99.90
4050;DHT22;2039;50.894;6.888;2023-12-22T07:55:43;7.50;99.90
4050;DHT22;2039;50.894;6.888;2023-12-22T07:58:08;7.60;99.90
4050;DHT22;2039;50.894;6.888;2023-12-22T08:00:34;7.60;99.90
4050;DHT22;2039;50.894;6.888;2023-12-22T08:03:00;7.60;99.90
4050;DHT22;2039;50.894;6.888;2023-12-22T08:05:26;7.60;99.90
4050;DHT22;2039;50.894;6.888;2023-12-22T08:07:52;7.70;99.90
4050;DHT22;2039;50.894;6.888;2023-12-22T08:10:18;7.70;99.90
4050;DHT22;2039;50.894;6.888;2023-12-22T08:12:43;7.80;99.90
4050;DHT22;2039;50.894;6.888;2023-12-22T08:15:09;7.80;99.90
4050;DHT22;2039;50.894;6.888;2023-12-22T08:17:46;7.80;99.90
4050;DHT22;2039;50.894;6.888;2023-12-22T08:20:17;7.80;99.90
4050;DHT22;2039;50.894;6.888;2023-12-22T08:22:48;7.80;99.90
4050;DHT22;2039;50.894;6.888;2023-12-22T08:25:14;7.90;99.90
4050;DHT22;2039;50.894;6.888;2023-12-22T08:27:40;7.90;99.90
4050;DHT22;2039;50.894;6.888;2023-12-22T08:30:08;8.00;99.90
4050;DHT22;2039;50.894;6.888;2023-12-22T08:32:34;8.00;99.90
4050;DHT22;2039;50.894;6.888;2023-12-22T08:34:59;8.00;99.90
4050;DHT22;2039;50.894;6.888;2023-12-22T08:37:25;8.00;99.90
4050;DHT22;2039;50.894;6.888;2023-12-22T08:39:50;8.10;99.90
4050;DHT22;2039;50.894;6.888;2023-12-22T08:42:17;8.20;99.90
4050;DHT22;2039;50.894;6.888;2023-12-22T08:44:43;8.20;99.90
4050;DHT22;2039;50.894;6.888;2023-12-22T08:47:08;8.10;99.90
4050;DHT22;2039;50.894;6.888;2023-12-22T08:49:34;8.20;99.90
4050;DHT22;2039;50.894;6.888;2023-12-22T08:52:00;8.20;99.90
4050;DHT22;2039;50.894;6.888;2023-12-22T08:54:27;8.20;99.90
4050;DHT22;2039;50.894;6.888;2023-12-22T08:56:53;8.30;99.90
4050;DHT22;2039;50.894;6.888;2023-12-22T08:59:18;8.30;99.90
4050;DHT22;2039;50.894;6.888;2023-12-22T09:01:45;8.30;99.90
4050;DHT22;2039;50.894;6.888;2023-12-22T09:04:11;8.40;99.90
4050;DHT22;2039;50.894;6.888;2023-12-22T09:06:37;8.40;99.90
4050;DHT22;2039;50.894;6.888;2023-12-22T09:09:03;8.40;99.90
4050;DHT22;2039;50.894;6.888;2023-12-22T09:11:33;8.50;99.90
4050;DHT22;2039;50.894;6.888;2023-12-22T09:13:58;8.50;99.90
4050;DHT22;2039;50.894;6.888;2023-12-22T09:16:24;8.50;99.90
4050;DHT22;2039;50.894;6.888;2023-12-22T09:18:51;8.50;99.90
4050;DHT22;2039;50.894;6.888;2023-12-22T09:21:17;8.50;99.90
4050;DHT22;2039;50.894;6.888;2023-12-22T09:23:46;8.60;99.90
4050;DHT22;2039;50.894;6.888;2023-12-22T09:26:13;8.60;99.90
4050;DHT22;2039;50.894;6.888;2023-12-22T09:28:39;8.60;99.90
4050;DHT22;2039;50.894;6.888;2023-12-22T09:31:07;8.60;99.90
4050;DHT22;2039;50.894;6.888;2023-12-22T09:33:32;8.70;99.90
4050;DHT22;2039;50.894;6.888;2023-12-22T09:35:58;8.70;99.90
4050;DHT22;2039;50.894;6.888;2023-12-22T09:38:24;8.70;99.90
4050;DHT22;2039;50.894;6.888;2023-12-22T09:40:50;8.80;99.90
4050;DHT22;2039;50.894;6.888;2023-12-22T09:43:16;8.80;99.90
4050;DHT22;2039;50.894;6.888;2023-12-22T09:45:46;8.80;99.90
4050;DHT22;2039;50.894;6.888;2023-12-22T09:48:13;8.90;99.90
4050;DHT22;2039;50.894;6.888;2023-12-22T09:50:46;8.90;99.90
4050;DHT22;2039;50.894;6.888;2023-12-22T09:53:15;8.90;99.90
4050;DHT22;2039;50.894;6.888;2023-12-22T09:55:45;9.00;99.90
4050;DHT22;2039;50.894;6.888;2023-12-22T09:58:14;9.00;99.90
4050;DHT22;2039;50.894;6.888;2023-12-22T10:00:42;9.00;99.90
4050;DHT22;2039;50.894;6.888;2023-12-22T10:03:10;9.00;99.90
4050;DHT22;2039;50.894;6.888;2023-12-22T10:05:37;9.00;99.90
4050;DHT22;2039;50.894;6.888;2023-12-22T10:08:04;9.10;99.90
4050;DHT22;2039;50.894;6.888;2023-12-22T10:10:30;9.10;99.90
4050;DHT22;2039;50.894;6.888;2023-12-22T10:13:04;9.20;99.90
4050;DHT22;2039;50.894;6.888;2023-12-22T10:15:36;9.10;99.90
4050;DHT22;2039;50.894;6.888;2023-12-22T10:18:05;9.20;99.90
4050;DHT22;2039;50.894;6.888;2023-12-22T10:20:31;9.20;99.90
4050;DHT22;2039;50.894;6.888;2023-12-22T10:22:58;9.20;99.90
4050;DHT22;2039;50.894;6.888;2023-12-22T10:25:28;9.20;99.90
4050;DHT22;2039;50.894;6.888;2023-12-22T10:27:57;9.20;99.90
4050;DHT22;2039;50.894;6.888;2023-12-22T10:30:26;9.10;99.90
4050;DHT22;2039;50.894;6.888;2023-12-22T10:32:53;9.00;99.90
4050;DHT22;2039;50.894;6.888;2023-12-22T10:35:20;9.00;99.90
4050;DHT22;2039;50.894;6.888;2023-12-22T10:37:46;9.00;99.90
4050;DHT22;2039;50.894;6.888;2023-12-22T10:40:13;9.00;99.90
4050;DHT22;2039;50.894;6.888;2023-12-22T10:42:40;9.00;99.90
4050;DHT22;2039;50.894;6.888;2023-12-22T10:45:07;8.90;99.90
4050;DHT22;2039;50.894;6.888;2023-12-22T10:47:32;9.00;99.90
4050;DHT22;2039;50.894;6.888;2023-12-22T10:50:05;9.00;99.90
4050;DHT22;2039;50.894;6.888;2023-12-22T10:52:31;9.00;99.90
4050;DHT22;2039;50.894;6.888;2023-12-22T10:54:59;9.00;99.90
4050;DHT22;2039;50.894;6.888;2023-12-22T10:57:26;9.00;99.90
4050;DHT22;2039;50.894;6.888;2023-12-22T10:59:53;9.00;99.90
4050;DHT22;2039;50.894;6.888;2023-12-22T11:02:22;9.00;99.90
4050;DHT22;2039;50.894;6.888;2023-12-22T11:04:57;9.00;99.90
4050;DHT22;2039;50.894;6.888;2023-12-22T11:07:28;9.00;99.90
4050;DHT22;2039;50.894;6.888;2023-12-22T11:09:56;9.10;99.90
4050;DHT22;2039;50.894;6.888;2023-12-22T11:12:24;9.10;99.90
4050;DHT22;2039;50.894;6.888;2023-12-22T11:14:52;9.10;99.90
4050;DHT22;2039;50.894;6.888;2023-12-22T11:17:20;9.10;99.90
4050;DHT22;2039;50.894;6.888;2023-12-22T11:19:49;9.20;99.90
4050;DHT22;2039;50.894;6.888;2023-12-22T11:22:17;9.20;99.90
4050;DHT22;2039;50.894;6.888;2023-12-22T11:24:49;9.30;99.90
4050;DHT22;2039;50.894;6.888;2023-12-22T11:27:19;9.30;99.90
4050;DHT22;2039;50.894;6.888;2023-12-22T11:29:47;9.40;99.90
4050;DHT22;2039;50.894;6.888;2023-12-22T11:32:27;9.40;99.90
4050;DHT22;2039;50.894;6.888;2023-12-22T11:34:54;9.40;99.90
4050;DHT22;2039;50.894;6.888;2023-12-22T11:37:22;9.50;99.90
4050;DHT22;2039;50.894;6.888;2023-12-22T11:39:48;9.40;99.90
4050;DHT22;2039;50.894;6.888;2023-12-22T11:42:24;9.40;99.90
4050;DHT22;2039;50.894;6.888;2023-12-22T11:44:52;9.40;99.90
4050;DHT22;2039;50.894;6.888;2023-12-22T11:47:22;9.50;99.90
4050;DHT22;2039;50.894;6.888;2023-12-22T11:49:48;9.40;99.90
4050;DHT22;2039;50.894;6.888;2023-12-22T11:52:24;9.40;99.90
4050;DHT22;2039;50.894;6.888;2023-12-22T11:54:52;9.40;99.90
4050;DHT22;2039;50.894;6.888;2023-12-22T11:57:31;9.50;99.90
4050;DHT22;2039;50.894;6.888;2023-12-22T12:00:00;9.50;99.90
4050;DHT22;2039;50.894;6.888;2023-12-22T12:02:26;9.50;99.90
4050;DHT22;2039;50.894;6.888;2023-12-22T12:04:53;9.60;99.90
4050;DHT22;2039;50.894;6.888;2023-12-22T12:07:38;9.60;99.90
4050;DHT22;2039;50.894;6.888;2023-12-22T12:10:08;9.60;99.90
4050;DHT22;2039;50.894;6.888;2023-12-22T12:12:35;9.70;99.90
4050;DHT22;2039;50.894;6.888;2023-12-22T12:15:16;9.70;99.90
4050;DHT22;2039;50.894;6.888;2023-12-22T12:17:43;9.70;99.90
4050;DHT22;2039;50.894;6.888;2023-12-22T12:20:12;9.80;99.90
4050;DHT22;2039;50.894;6.888;2023-12-22T12:22:38;9.90;99.90
4050;DHT22;2039;50.894;6.888;2023-12-22T12:25:08;9.90;99.90
4050;DHT22;2039;50.894;6.888;2023-12-22T12:27:36;9.90;99.90
4050;DHT22;2039;50.894;6.888;2023-12-22T12:30:21;10.00;99.90
4050;DHT22;2039;50.894;6.888;2023-12-22T12:32:48;10.00;99.90
4050;DHT22;2039;50.894;6.888;2023-12-22T12:35:15;10.00;99.90
4050;DHT22;2039;50.894;6.888;2023-12-22T12:37:44;10.00;99.90
4050;DHT22;2039;50.894;6.888;2023-12-22T12:40:15;10.00;99.90
4050;DHT22;2039;50.894;6.888;2023-12-22T12:42:45;10.00;99.90
4050;DHT22;2039;50.894;6.888;2023-12-22T12:45:13;10.10;99.90
4050;DHT22;2039;50.894;6.888;2023-12-22T12:47:39;10.10;99.90
4050;DHT22;2039;50.894;6.888;2023-12-22T12:50:05;10.10;99.90
4050;DHT22;2039;50.894;6.888;2023-12-22T12:52:31;10.10;99.90
4050;DHT22;2039;50.894;6.888;2023-12-22T12:54:57;10.20;99.90
4050;DHT22;2039;50.894;6.888;2023-12-22T12:57:24;10.20;99.90
4050;DHT22;2039;50.894;6.888;2023-12-22T12:59:50;10.20;99.90
4050;DHT22;2039;50.894;6.888;2023-12-22T13:02:17;10.20;99.90
4050;DHT22;2039;50.894;6.888;2023-12-22T13:04:43;10.20;99.90
4050;DHT22;2039;50.894;6.888;2023-12-22T13:07:09;10.20;99.90
4050;DHT22;2039;50.894;6.888;2023-12-22T13:09:38;10.20;99.90
4050;DHT22;2039;50.894;6.888;2023-12-22T13:12:05;10.10;99.90
4050;DHT22;2039;50.894;6.888;2023-12-22T13:14:33;10.10;99.90
4050;DHT22;2039;50.894;6.888;2023-12-22T13:16:59;10.00;99.90
4050;DHT22;2039;50.894;6.888;2023-12-22T13:19:25;10.00;99.90
4050;DHT22;2039;50.894;6.888;2023-12-22T13:21:53;10.00;99.90
4050;DHT22;2039;50.894;6.888;2023-12-22T13:24:19;10.00;99.90
4050;DHT22;2039;50.894;6.888;2023-12-22T13:26:45;10.00;99.90
4050;DHT22;2039;50.894;6.888;2023-12-22T13:29:12;10.00;99.90
4050;DHT22;2039;50.894;6.888;2023-12-22T13:31:42;10.00;99.90
4050;DHT22;2039;50.894;6.888;2023-12-22T13:34:11;10.00;99.90
4050;DHT22;2039;50.894;6.888;2023-12-22T13:36:38;10.00;99.90
4050;DHT22;2039;50.894;6.888;2023-12-22T13:39:05;10.10;99.90
4050;DHT22;2039;50.894;6.888;2023-12-22T13:41:41;10.10;99.90
4050;DHT22;2039;50.894;6.888;2023-12-22T13:44:11;10.10;99.90
4050;DHT22;2039;50.894;6.888;2023-12-22T13:46:37;10.10;99.90
4050;DHT22;2039;50.894;6.888;2023-12-22T13:49:09;10.20;99.90
4050;DHT22;2039;50.894;6.888;2023-12-22T13:51:42;10.20;99.90
4050;DHT22;2039;50.894;6.888;2023-12-22T13:54:07;10.20;99.90
4050;DHT22;2039;50.894;6.888;2023-12-22T13:56:36;10.20;99.90
4050;DHT22;2039;50.894;6.888;2023-12-22T13:59:03;10.20;99.90
4050;DHT22;2039;50.894;6.888;2023-12-22T14:01:32;10.20;99.90
4050;DHT22;2039;50.894;6.888;2023-12-22T14:03:59;10.20;99.90
4050;DHT22;2039;50.894;6.888;2023-12-22T14:06:26;10.20;99.90
4050;DHT22;2039;50.894;6.888;2023-12-22T14:08:53;10.20;99.90
4050;DHT22;2039;50.894;6.888;2023-12-22T14:11:19;10.20;99.90
4050;DHT22;2039;50.894;6.888;2023-12-22T14:13:45;10.20;99.90
4050;DHT22;2039;50.894;6.888;2023-12-22T14:16:10;10.30;99.90
4050;DHT22;2039;50.894;6.888;2023-12-22T14:19:17;10.30;99.90
4050;DHT22;2039;50.894;6.888;2023-12-22T14:21:42;10.30;99.90
4050;DHT22;2039;50.894;6.888;2023-12-22T14:24:08;10.20;99.90
4050;DHT22;2039;50.894;6.888;2023-12-22T14:26:55;10.20;99.90
4050;DHT22;2039;50.894;6.888;2023-12-22T14:29:21;10.20;99.90
4050;DHT22;2039;50.894;6.888;2023-12-22T14:31:50;10.20;99.90
4050;DHT22;2039;50.894;6.888;2023-12-22T14:34:17;10.20;99.90
4050;DHT22;2039;50.894;6.888;2023-12-22T14:36:43;10.20;99.90
4050;DHT22;2039;50.894;6.888;2023-12-22T14:39:10;10.20;99.90
4050;DHT22;2039;50.894;6.888;2023-12-22T14:41:39;10.20;99.90
4050;DHT22;2039;50.894;6.888;2023-12-22T14:44:05;10.10;99.90
4050;DHT22;2039;50.894;6.888;2023-12-22T14:46:30;10.10;99.90
4050;DHT22;2039;50.894;6.888;2023-12-22T14:48:56;10.10;99.90
4050;DHT22;2039;50.894;6.888;2023-12-22T14:51:22;10.10;99.90
4050;DHT22;2039;50.894;6.888;2023-12-22T14:53:48;10.10;99.90
4050;DHT22;2039;50.894;6.888;2023-12-22T14:56:13;10.10;99.90
4050;DHT22;2039;50.894;6.888;2023-12-22T14:58:39;10.10;99.90
4050;DHT22;2039;50.894;6.888;2023-12-22T15:01:04;10.10;99.90
4050;DHT22;2039;50.894;6.888;2023-12-22T15:03:30;10.20;99.90
4050;DHT22;2039;50.894;6.888;2023-12-22T15:05:56;10.10;99.90
4050;DHT22;2039;50.894;6.888;2023-12-22T15:08:21;10.10;99.90
4050;DHT22;2039;50.894;6.888;2023-12-22T15:10:47;10.10;99.90
4050;DHT22;2039;50.894;6.888;2023-12-22T15:13:13;10.00;99.90
4050;DHT22;2039;50.894;6.888;2023-12-22T15:15:39;10.00;99.90
4050;DHT22;2039;50.894;6.888;2023-12-22T15:18:07;10.00;99.90
4050;DHT22;2039;50.894;6.888;2023-12-22T15:20:34;10.00;99.90
4050;DHT22;2039;50.894;6.888;2023-12-22T15:23:00;10.00;99.90
4050;DHT22;2039;50.894;6.888;2023-12-22T15:25:25;10.00;99.90
4050;DHT22;2039;50.894;6.888;2023-12-22T15:27:51;10.00;99.90
4050;DHT22;2039;50.894;6.888;2023-12-22T15:30:17;10.00;99.90
4050;DHT22;2039;50.894;6.888;2023-12-22T15:32:42;10.00;99.90
4050;DHT22;2039;50.894;6.888;2023-12-22T15:35:08;10.00;99.90
4050;DHT22;2039;50.894;6.888;2023-12-22T15:37:34;10.00;99.90
4050;DHT22;2039;50.894;6.888;2023-12-22T15:39:59;9.90;99.90
4050;DHT22;2039;50.894;6.888;2023-12-22T15:42:28;9.90;99.90
4050;DHT22;2039;50.894;6.888;2023-12-22T15:44:53;9.90;99.90
4050;DHT22;2039;50.894;6.888;2023-12-22T15:47:19;9.90;99.90
4050;DHT22;2039;50.894;6.888;2023-12-22T15:49:45;9.90;99.90
4050;DHT22;2039;50.894;6.888;2023-12-22T15:52:10;10.00;99.90
4050;DHT22;2039;50.894;6.888;2023-12-22T15:54:38;10.00;99.90
4050;DHT22;2039;50.894;6.888;2023-12-22T15:57:04;9.90;99.90
4050;DHT22;2039;50.894;6.888;2023-12-22T15:59:30;9.90;99.90
4050;DHT22;2039;50.894;6.888;2023-12-22T16:01:55;9.90;99.90
4050;DHT22;2039;50.894;6.888;2023-12-22T16:04:21;9.90;99.90
4050;DHT22;2039;50.894;6.888;2023-12-22T16:06:47;9.90;99.90
4050;DHT22;2039;50.894;6.888;2023-12-22T16:09:12;9.90;99.90
4050;DHT22;2039;50.894;6.888;2023-12-22T16:11:39;9.90;99.90
4050;DHT22;2039;50.894;6.888;2023-12-22T16:14:04;9.90;99.90
4050;DHT22;2039;50.894;6.888;2023-12-22T16:16:30;9.90;99.90
4050;DHT22;2039;50.894;6.888;2023-12-22T16:19:00;9.90;99.90